Terminal Aerodrome Forecast
Issued by NWS

Home | Current Version | Previous Version | Text Only | Print | Product List | Glossary On
Versions: 1 2 3 4 5 6 7 8 9 10 11 12 13 14 15
000
FTUS45 KABQ 051739
TAFSAF
TAF
KSAF 051739Z 0518/0618 35007KT P6SM SCT250
     FM052000 26010G15KT P6SM SCT250
     FM060100 35007KT P6SM SCT150=

USA.gov is the U.S. government's official web portal to all federal, state and local government web resources and services.